createdAt,value
2023-03-29T00:01:34.794Z,25.40
2023-03-29T00:04:04.320Z,19.15
2023-03-29T00:06:33.602Z,18.60
2023-03-29T00:09:01.957Z,21.30
2023-03-29T00:11:28.646Z,20.85
2023-03-29T00:13:55.386Z,21.15
2023-03-29T00:16:22.443Z,22.70
2023-03-29T00:18:49.005Z,18.05
2023-03-29T00:21:15.447Z,18.55
2023-03-29T00:23:41.897Z,18.27
2023-03-29T00:26:08.637Z,20.73
2023-03-29T00:28:35.455Z,21.95
2023-03-29T00:31:10.696Z,18.08
2023-03-29T00:33:37.526Z,17.65
2023-03-29T00:36:06.032Z,17.40
2023-03-29T00:38:33.238Z,18.30
2023-03-29T00:41:00.345Z,19.92
2023-03-29T00:43:27.111Z,18.65
2023-03-29T00:45:54.104Z,18.05
2023-03-29T00:48:28.971Z,18.23
2023-03-29T00:51:10.160Z,20.90
2023-03-29T00:53:42.680Z,17.25
2023-03-29T00:56:25.564Z,19.25
2023-03-29T00:58:57.250Z,16.83
2023-03-29T01:01:42.024Z,17.02
2023-03-29T01:04:18.211Z,17.20
2023-03-29T01:07:02.969Z,16.27
2023-03-29T01:09:32.669Z,15.60
2023-03-29T01:12:02.765Z,17.25
2023-03-29T01:14:34.544Z,18.98
2023-03-29T01:17:01.200Z,17.75
2023-03-29T01:19:33.042Z,15.48
2023-03-29T01:22:05.892Z,14.95
2023-03-29T01:24:58.361Z,18.42
2023-03-29T01:27:50.031Z,18.55
2023-03-29T01:30:25.504Z,15.73
2023-03-29T01:33:21.062Z,17.40
2023-03-29T01:36:08.138Z,17.65
2023-03-29T01:38:40.246Z,16.55
2023-03-29T01:41:07.851Z,15.50
2023-03-29T01:43:58.998Z,15.90
2023-03-29T01:46:48.213Z,16.58
2023-03-29T01:49:20.079Z,16.40
2023-03-29T01:51:58.489Z,16.73
2023-03-29T01:54:33.306Z,15.38
2023-03-29T01:57:03.780Z,16.90
2023-03-29T01:59:35.918Z,15.77
2023-03-29T02:02:11.426Z,17.52
2023-03-29T02:04:45.858Z,15.18
2023-03-29T02:07:13.072Z,20.13
2023-03-29T02:09:40.267Z,24.70
2023-03-29T02:12:09.176Z,15.68
2023-03-29T02:14:35.687Z,18.55
2023-03-29T02:17:19.976Z,16.52
2023-03-29T02:19:50.183Z,13.93
2023-03-29T02:24:50.109Z,19.90
2023-03-29T02:27:16.650Z,15.93
2023-03-29T02:29:43.180Z,15.68
2023-03-29T02:32:19.519Z,20.08
2023-03-29T02:35:13.299Z,17.60
2023-03-29T02:37:45.310Z,14.77
2023-03-29T02:40:14.417Z,14.98
2023-03-29T02:42:43.772Z,16.13
2023-03-29T02:45:14.530Z,17.43
2023-03-29T02:47:50.004Z,14.20
2023-03-29T02:50:16.720Z,14.40
2023-03-29T02:52:53.006Z,13.82
2023-03-29T02:55:23.542Z,14.38
2023-03-29T02:57:50.362Z,15.07
2023-03-29T03:00:18.825Z,17.88
2023-03-29T03:02:46.763Z,16.48
2023-03-29T03:05:13.752Z,18.13
2023-03-29T03:07:40.652Z,17.08
2023-03-29T03:10:10.010Z,14.60
2023-03-29T03:12:37.616Z,15.27
2023-03-29T03:15:05.895Z,17.55
2023-03-29T03:17:33.469Z,16.85
2023-03-29T03:20:00.593Z,14.77
2023-03-29T03:22:27.133Z,15.23
2023-03-29T03:24:53.741Z,15.77
2023-03-29T03:27:20.521Z,14.07
2023-03-29T03:29:47.439Z,14.90
2023-03-29T03:32:13.978Z,20.30
2023-03-29T03:34:40.458Z,18.20
2023-03-29T03:37:07.057Z,19.50
2023-03-29T03:39:33.596Z,20.15
2023-03-29T03:42:00.269Z,18.80
2023-03-29T03:44:26.750Z,20.08
2023-03-29T03:46:53.258Z,14.98
2023-03-29T03:49:21.065Z,12.90
2023-03-29T03:51:47.700Z,21.50
2023-03-29T03:54:14.172Z,16.65
2023-03-29T03:56:40.666Z,13.30
2023-03-29T03:59:07.232Z,16.55
2023-03-29T04:01:35.301Z,21.13
2023-03-29T04:04:02.201Z,19.73
2023-03-29T04:06:30.541Z,16.90
2023-03-29T04:08:56.990Z,17.95
2023-03-29T04:11:23.787Z,13.23
2023-03-29T04:13:50.312Z,20.50
2023-03-29T04:16:16.798Z,20.45
2023-03-29T04:18:44.111Z,16.27
2023-03-29T04:21:10.831Z,20.83
2023-03-29T04:23:40.156Z,21.73
2023-03-29T04:26:07.739Z,15.03
2023-03-29T04:28:34.634Z,18.75
2023-03-29T04:31:03.941Z,16.73
2023-03-29T04:33:30.823Z,18.02
2023-03-29T04:35:57.388Z,15.27
2023-03-29T04:38:23.871Z,18.58
2023-03-29T04:40:50.947Z,17.10
2023-03-29T04:43:17.642Z,16.75
2023-03-29T04:45:50.120Z,20.58
2023-03-29T04:48:17.089Z,15.95
2023-03-29T04:50:46.750Z,19.05
2023-03-29T04:53:13.399Z,23.25
2023-03-29T04:55:39.958Z,18.77
2023-03-29T04:58:06.679Z,23.35
2023-03-29T05:00:33.257Z,20.15
2023-03-29T05:02:59.871Z,18.58
2023-03-29T05:05:26.992Z,18.70
2023-03-29T05:07:54.866Z,18.92
2023-03-29T05:10:21.562Z,21.23
2023-03-29T05:12:50.542Z,19.23
2023-03-29T05:15:17.343Z,19.98
2023-03-29T05:17:43.902Z,27.00
2023-03-29T05:20:11.554Z,25.20
2023-03-29T05:22:38.526Z,26.60
2023-03-29T05:25:05.754Z,24.23
2023-03-29T05:27:33.562Z,20.20
2023-03-29T05:30:01.705Z,25.30
2023-03-29T05:32:28.652Z,25.55
2023-03-29T05:34:55.206Z,23.85
2023-03-29T05:37:21.685Z,23.95
2023-03-29T05:39:49.954Z,25.83
2023-03-29T05:42:19.145Z,30.25
2023-03-29T05:44:45.583Z,27.27
2023-03-29T05:47:12.163Z,26.95
2023-03-29T05:49:39.195Z,29.30
2023-03-29T05:52:06.644Z,26.92
2023-03-29T05:54:33.065Z,26.13
2023-03-29T05:56:59.517Z,25.52
2023-03-29T05:59:28.423Z,27.08
2023-03-29T06:01:54.910Z,28.48
2023-03-29T06:04:21.559Z,33.95
2023-03-29T06:06:48.605Z,23.17
2023-03-29T06:09:15.569Z,24.38
2023-03-29T06:11:42.045Z,31.13
2023-03-29T06:14:08.781Z,28.90
2023-03-29T06:16:36.328Z,26.45
2023-03-29T06:19:02.869Z,28.33
2023-03-29T06:21:30.269Z,26.65
2023-03-29T06:23:56.713Z,26.75
2023-03-29T06:26:23.945Z,29.73
2023-03-29T06:28:52.252Z,28.55
2023-03-29T06:31:19.917Z,22.60
2023-03-29T06:33:46.893Z,24.92
2023-03-29T06:36:16.110Z,23.95
2023-03-29T06:38:44.283Z,26.98
2023-03-29T06:41:11.172Z,23.63
2023-03-29T06:43:38.182Z,27.83
2023-03-29T06:46:08.781Z,22.85
2023-03-29T06:48:35.306Z,26.67
2023-03-29T06:51:01.942Z,30.42
2023-03-29T06:53:28.597Z,23.60
2023-03-29T06:55:55.103Z,25.92
2023-03-29T06:58:21.859Z,20.60
2023-03-29T07:00:48.401Z,21.35
2023-03-29T07:03:20.418Z,27.17
2023-03-29T07:05:47.838Z,19.33
2023-03-29T07:08:16.666Z,20.75
2023-03-29T07:10:50.501Z,26.10
2023-03-29T07:13:17.267Z,21.50
2023-03-29T07:15:44.971Z,21.33
2023-03-29T07:18:12.779Z,19.55
2023-03-29T07:20:40.436Z,24.48
2023-03-29T07:23:08.150Z,19.65
2023-03-29T07:25:34.793Z,19.45
2023-03-29T07:28:02.743Z,24.45
2023-03-29T07:30:32.381Z,21.23
2023-03-29T07:33:00.539Z,20.35
2023-03-29T07:35:28.003Z,18.60
2023-03-29T07:37:57.787Z,18.33
2023-03-29T07:40:24.845Z,20.88
2023-03-29T07:42:53.953Z,17.25
2023-03-29T07:45:26.750Z,20.38
2023-03-29T07:47:57.533Z,17.00
2023-03-29T07:50:24.699Z,20.42
2023-03-29T07:52:51.354Z,18.48
2023-03-29T07:55:18.467Z,19.95
2023-03-29T07:57:45.254Z,21.17
2023-03-29T08:00:16.263Z,17.40
2023-03-29T08:02:44.447Z,18.33
2023-03-29T08:05:12.900Z,20.45
2023-03-29T08:07:43.350Z,22.35
2023-03-29T08:10:13.500Z,15.70
2023-03-29T08:12:40.239Z,17.80
2023-03-29T08:15:07.314Z,17.15
2023-03-29T08:17:34.971Z,20.13
2023-03-29T08:20:02.180Z,22.90
2023-03-29T08:22:28.636Z,17.45
2023-03-29T08:24:55.334Z,21.05
2023-03-29T08:27:22.125Z,16.58
2023-03-29T08:29:48.619Z,19.58
2023-03-29T08:32:15.282Z,17.63
2023-03-29T08:34:41.961Z,18.10
2023-03-29T08:37:09.780Z,18.50
2023-03-29T08:39:36.505Z,17.45
2023-03-29T08:42:28.782Z,17.73
2023-03-29T08:45:19.905Z,17.80
2023-03-29T08:48:08.382Z,22.58
2023-03-29T08:50:48.093Z,17.67
2023-03-29T08:53:27.657Z,17.40
2023-03-29T08:55:57.101Z,17.10
2023-03-29T08:58:29.205Z,17.60
2023-03-29T09:00:58.509Z,17.70
2023-03-29T09:03:31.858Z,17.23
2023-03-29T09:06:10.838Z,17.88
2023-03-29T09:08:44.129Z,17.17
2023-03-29T09:11:21.699Z,18.13
2023-03-29T09:14:09.126Z,17.25
2023-03-29T09:16:45.005Z,18.35
2023-03-29T09:19:20.894Z,16.45
2023-03-29T09:21:51.950Z,16.92
2023-03-29T09:24:44.290Z,17.10
2023-03-29T09:27:27.911Z,17.90
2023-03-29T09:30:13.589Z,17.20
2023-03-29T09:33:25.198Z,16.70
2023-03-29T09:36:12.181Z,17.15
2023-03-29T09:38:43.342Z,17.15
2023-03-29T09:41:18.991Z,16.77
2023-03-29T09:43:47.179Z,19.58
2023-03-29T09:46:28.214Z,17.92
2023-03-29T09:48:56.708Z,18.45
2023-03-29T09:51:28.084Z,19.05
2023-03-29T09:53:56.578Z,19.63
2023-03-29T09:56:23.662Z,21.75
2023-03-29T09:58:50.215Z,19.40
2023-03-29T10:01:20.252Z,24.02
2023-03-29T10:03:54.346Z,18.33
2023-03-29T10:06:24.053Z,20.58
2023-03-29T10:08:57.910Z,18.35
2023-03-29T10:11:33.292Z,18.88
2023-03-29T10:14:12.593Z,18.45
2023-03-29T10:16:41.846Z,24.10
2023-03-29T10:19:23.261Z,17.88
2023-03-29T10:21:55.646Z,17.60
2023-03-29T10:24:24.040Z,18.38
2023-03-29T10:26:57.506Z,21.77
2023-03-29T10:29:26.001Z,20.73
2023-03-29T10:31:53.127Z,21.27
2023-03-29T10:34:25.248Z,19.92
2023-03-29T10:36:58.878Z,20.02
2023-03-29T10:39:29.569Z,18.23
2023-03-29T10:41:56.403Z,20.73
2023-03-29T10:44:33.324Z,18.80
2023-03-29T10:47:17.592Z,18.58
2023-03-29T10:49:50.864Z,21.42
2023-03-29T10:52:20.292Z,19.63
2023-03-29T10:54:48.076Z,18.48
2023-03-29T10:57:22.798Z,19.55
2023-03-29T10:59:55.391Z,19.80
2023-03-29T11:02:33.765Z,18.52
2023-03-29T11:05:31.341Z,28.48
2023-03-29T11:08:10.040Z,22.90
2023-03-29T11:10:46.121Z,26.48
2023-03-29T11:13:59.839Z,22.65
2023-03-29T11:16:39.256Z,28.65
2023-03-29T11:19:05.776Z,25.48
2023-03-29T11:21:43.398Z,24.65
2023-03-29T11:24:28.067Z,20.55
2023-03-29T11:27:09.732Z,22.85
2023-03-29T11:29:58.639Z,24.30
2023-03-29T11:32:35.714Z,22.05
2023-03-29T11:35:32.210Z,27.85
2023-03-29T11:38:26.855Z,22.08
2023-03-29T11:41:10.946Z,21.50
2023-03-29T11:43:48.930Z,20.92
2023-03-29T11:46:27.309Z,21.08
2023-03-29T11:49:01.762Z,25.92
2023-03-29T11:51:59.554Z,20.90
2023-03-29T11:54:34.377Z,21.63
2023-03-29T11:57:11.648Z,23.55
2023-03-29T11:59:52.113Z,22.08
2023-03-29T12:02:35.982Z,24.10
2023-03-29T12:05:13.628Z,24.45
2023-03-29T12:07:48.651Z,23.48
2023-03-29T12:10:21.104Z,22.30
2023-03-29T12:13:17.049Z,27.85
2023-03-29T12:16:10.671Z,23.10
2023-03-29T12:18:41.976Z,21.77
2023-03-29T12:21:20.043Z,26.30
2023-03-29T12:23:48.047Z,22.55
2023-03-29T12:26:36.551Z,22.27
2023-03-29T12:29:15.239Z,26.30
2023-03-29T12:31:59.349Z,22.88
2023-03-29T12:34:30.991Z,23.10
2023-03-29T12:37:24.735Z,22.10
2023-03-29T12:39:51.993Z,24.23
2023-03-29T12:42:23.920Z,23.20
2023-03-29T12:45:00.583Z,24.75
2023-03-29T12:47:33.777Z,21.92
2023-03-29T12:50:03.426Z,28.20
2023-03-29T12:52:36.908Z,21.80
2023-03-29T12:55:30.796Z,21.48
2023-03-29T12:58:03.931Z,21.35
2023-03-29T13:00:44.529Z,23.42
2023-03-29T13:03:20.304Z,22.65
2023-03-29T13:05:47.170Z,23.17
2023-03-29T13:08:27.511Z,20.42
2023-03-29T13:13:28.023Z,21.08
2023-03-29T13:15:54.777Z,21.40
2023-03-29T13:18:32.102Z,22.23
2023-03-29T13:21:07.860Z,20.33
2023-03-29T13:23:49.597Z,22.75
2023-03-29T13:27:02.573Z,19.85
2023-03-29T13:29:53.384Z,20.60
2023-03-29T13:32:27.193Z,20.70
2023-03-29T13:35:07.124Z,21.65
2023-03-29T13:37:57.981Z,22.58
2023-03-29T13:40:30.477Z,21.17
2023-03-29T13:43:19.738Z,19.52
2023-03-29T13:45:57.966Z,23.33
2023-03-29T13:48:37.851Z,20.73
2023-03-29T13:51:13.009Z,21.02
2023-03-29T13:54:10.649Z,21.70
2023-03-29T13:56:55.319Z,20.92
2023-03-29T13:59:35.572Z,20.63
2023-03-29T14:04:46.757Z,19.58
2023-03-29T14:07:20.695Z,24.00
2023-03-29T14:09:53.141Z,20.85
2023-03-29T14:12:20.690Z,19.95
2023-03-29T14:14:58.156Z,20.20
2023-03-29T14:17:25.692Z,21.65
2023-03-29T14:19:58.722Z,22.17
2023-03-29T14:22:31.213Z,22.00
2023-03-29T14:25:02.621Z,20.42
2023-03-29T14:27:31.749Z,19.95
2023-03-29T14:29:58.273Z,21.40
2023-03-29T14:32:30.891Z,20.88
2023-03-29T14:34:57.919Z,21.67
2023-03-29T14:37:28.931Z,21.48
2023-03-29T14:39:56.667Z,20.77
2023-03-29T14:42:28.945Z,20.45
2023-03-29T14:45:04.143Z,20.38
2023-03-29T14:47:33.159Z,19.45
2023-03-29T14:50:01.848Z,22.15
2023-03-29T14:52:30.531Z,19.55
2023-03-29T14:55:01.949Z,23.25
2023-03-29T14:57:35.539Z,20.85
2023-03-29T15:00:16.815Z,20.15
2023-03-29T15:02:54.152Z,23.30
2023-03-29T15:05:41.744Z,20.90
2023-03-29T15:08:14.847Z,21.42
2023-03-29T15:10:44.730Z,21.30
2023-03-29T15:15:42.981Z,20.63
2023-03-29T15:18:14.868Z,22.05
2023-03-29T15:20:42.442Z,21.65
2023-03-29T15:23:14.670Z,21.75
2023-03-29T15:25:51.816Z,20.95
2023-03-29T15:28:32.716Z,22.13
2023-03-29T15:31:20.149Z,22.38
2023-03-29T15:33:46.849Z,26.20
2023-03-29T15:36:14.596Z,22.23
2023-03-29T15:38:44.559Z,23.83
2023-03-29T15:41:16.124Z,21.77
2023-03-29T15:43:43.180Z,23.67
2023-03-29T15:46:16.644Z,22.48
2023-03-29T15:48:43.444Z,21.13
2023-03-29T15:51:13.368Z,21.95
2023-03-29T15:53:40.353Z,27.38
2023-03-29T15:56:11.548Z,23.50
2023-03-29T15:58:38.640Z,25.42
2023-03-29T16:01:34.683Z,23.50
2023-03-29T16:04:03.183Z,25.45
2023-03-29T16:06:29.775Z,23.40
2023-03-29T16:08:57.359Z,29.17
2023-03-29T16:11:24.121Z,23.80
2023-03-29T16:13:51.439Z,27.65
2023-03-29T16:16:18.083Z,22.70
2023-03-29T16:18:44.661Z,24.30
2023-03-29T16:21:16.033Z,37.03
2023-03-29T16:23:42.963Z,25.25
2023-03-29T16:26:12.512Z,25.17
2023-03-29T16:28:39.209Z,29.67
2023-03-29T16:31:06.093Z,24.70
2023-03-29T16:33:32.963Z,77.85
2023-03-29T16:35:59.487Z,29.02
2023-03-29T16:38:25.909Z,24.75
2023-03-29T16:40:52.587Z,25.00
2023-03-29T16:43:19.142Z,27.65
2023-03-29T16:45:45.779Z,22.98
2023-03-29T16:48:14.093Z,34.30
2023-03-29T16:50:40.531Z,28.13
2023-03-29T16:53:07.173Z,24.50
2023-03-29T16:55:34.026Z,22.95
2023-03-29T16:58:00.485Z,31.15
2023-03-29T17:00:27.010Z,22.77
2023-03-29T17:02:53.494Z,25.67
2023-03-29T17:05:19.932Z,25.13
2023-03-29T17:07:46.927Z,27.45
2023-03-29T17:10:13.857Z,26.55
2023-03-29T17:12:40.756Z,30.23
2023-03-29T17:15:08.843Z,26.63
2023-03-29T17:17:35.625Z,26.38
2023-03-29T17:20:02.102Z,24.40
2023-03-29T17:22:28.541Z,24.17
2023-03-29T17:24:57.714Z,27.98
2023-03-29T17:27:24.116Z,22.88
2023-03-29T17:29:50.864Z,27.23
2023-03-29T17:32:17.314Z,27.90
2023-03-29T17:34:43.738Z,30.13
2023-03-29T17:37:10.153Z,28.70
2023-03-29T17:39:37.880Z,25.40
2023-03-29T17:42:05.101Z,24.83
2023-03-29T17:44:33.229Z,28.92
2023-03-29T17:47:00.519Z,25.35
2023-03-29T17:49:27.021Z,25.52
2023-03-29T17:51:53.520Z,28.65
2023-03-29T17:54:19.958Z,23.90
2023-03-29T17:56:46.413Z,23.77
2023-03-29T17:59:16.260Z,27.20
2023-03-29T18:01:43.170Z,24.20
2023-03-29T18:04:09.912Z,30.35
2023-03-29T18:06:36.434Z,24.92
2023-03-29T18:09:03.190Z,24.50
2023-03-29T18:11:29.747Z,30.33
2023-03-29T18:13:59.919Z,27.00
2023-03-29T18:16:26.671Z,32.03
2023-03-29T18:18:53.269Z,50.92
2023-03-29T18:21:19.970Z,57.85
2023-03-29T18:23:48.186Z,38.42
2023-03-29T18:26:18.138Z,35.30
2023-03-29T18:28:48.478Z,28.08
2023-03-29T18:31:16.041Z,26.33
2023-03-29T18:33:43.027Z,37.92
2023-03-29T18:36:13.226Z,33.67
2023-03-29T18:38:40.688Z,34.60
2023-03-29T18:41:08.580Z,30.35
2023-03-29T18:43:36.934Z,27.35
2023-03-29T18:46:03.554Z,26.17
2023-03-29T18:48:31.039Z,29.45
2023-03-29T18:50:58.293Z,29.65
2023-03-29T18:53:25.018Z,25.65
2023-03-29T18:55:51.510Z,34.00
2023-03-29T18:58:20.251Z,25.95
2023-03-29T19:00:46.838Z,26.98
2023-03-29T19:03:13.501Z,26.80
2023-03-29T19:05:40.161Z,27.08
2023-03-29T19:08:08.461Z,27.23
2023-03-29T19:10:36.656Z,28.63
2023-03-29T19:13:04.136Z,29.13
2023-03-29T19:15:31.683Z,31.75
2023-03-29T19:17:58.246Z,28.35
2023-03-29T19:20:25.564Z,28.20
2023-03-29T19:22:53.717Z,27.35
2023-03-29T19:25:20.646Z,29.40
2023-03-29T19:27:47.739Z,28.02
2023-03-29T19:30:15.143Z,28.30
2023-03-29T19:32:41.942Z,29.85
2023-03-29T19:35:09.620Z,28.85
2023-03-29T19:37:36.486Z,31.40
2023-03-29T19:40:06.371Z,32.08
2023-03-29T19:42:38.606Z,29.48
2023-03-29T19:45:07.604Z,29.95
2023-03-29T19:47:34.739Z,28.45
2023-03-29T19:50:04.014Z,27.45
2023-03-29T19:52:30.694Z,30.40
2023-03-29T19:54:58.572Z,28.02
2023-03-29T19:57:25.487Z,30.98
2023-03-29T19:59:53.876Z,30.08
2023-03-29T20:02:20.502Z,31.42
2023-03-29T20:04:50.225Z,29.75
2023-03-29T20:07:16.805Z,32.58
2023-03-29T20:09:45.221Z,33.08
2023-03-29T20:12:11.921Z,31.17
2023-03-29T20:14:40.130Z,35.22
2023-03-29T20:17:07.405Z,32.65
2023-03-29T20:19:36.369Z,32.35
2023-03-29T20:22:05.991Z,33.70
2023-03-29T20:24:34.590Z,34.45
2023-03-29T20:27:01.720Z,33.28
2023-03-29T20:29:28.246Z,36.55
2023-03-29T20:31:54.854Z,35.95
2023-03-29T20:34:22.141Z,34.22
2023-03-29T20:36:48.894Z,36.47
2023-03-29T20:39:18.653Z,36.08
2023-03-29T20:41:47.932Z,38.70
2023-03-29T20:44:18.989Z,44.30
2023-03-29T20:46:54.285Z,39.67
2023-03-29T20:49:26.233Z,37.30
2023-03-29T20:51:59.000Z,37.53
2023-03-29T20:54:26.446Z,39.45
2023-03-29T20:56:55.103Z,38.28
2023-03-29T20:59:22.925Z,41.15
2023-03-29T21:01:50.155Z,36.92
2023-03-29T21:04:17.569Z,37.55
2023-03-29T21:06:45.643Z,38.08
2023-03-29T21:09:13.614Z,38.65
2023-03-29T21:11:40.178Z,38.30
2023-03-29T21:14:06.753Z,44.50
2023-03-29T21:16:33.463Z,36.30
2023-03-29T21:18:59.978Z,39.92
2023-03-29T21:21:26.518Z,37.15
2023-03-29T21:23:53.007Z,41.40
2023-03-29T21:26:19.590Z,40.67
2023-03-29T21:28:48.418Z,42.05
2023-03-29T21:31:15.240Z,43.45
2023-03-29T21:33:41.718Z,44.67
2023-03-29T21:36:08.312Z,46.05
2023-03-29T21:38:34.889Z,45.38
2023-03-29T21:41:03.095Z,46.60
2023-03-29T21:43:29.776Z,46.80
2023-03-29T21:45:57.830Z,50.33
2023-03-29T21:48:24.312Z,52.22
2023-03-29T21:50:51.023Z,51.60
2023-03-29T21:53:18.280Z,50.22
2023-03-29T21:55:44.802Z,51.33
2023-03-29T21:58:11.324Z,51.67
2023-03-29T22:00:38.034Z,52.40
2023-03-29T22:03:04.616Z,50.72
2023-03-29T22:05:31.172Z,49.78
2023-03-29T22:07:58.629Z,53.03
2023-03-29T22:10:25.389Z,51.40
2023-03-29T22:12:52.544Z,50.42
2023-03-29T22:15:21.758Z,49.78
2023-03-29T22:17:48.900Z,52.17
2023-03-29T22:20:15.477Z,52.63
2023-03-29T22:22:47.100Z,55.58
2023-03-29T22:25:13.589Z,51.47
2023-03-29T22:27:40.264Z,59.63
2023-03-29T22:30:08.469Z,59.30
2023-03-29T22:32:34.906Z,55.28
2023-03-29T22:35:01.643Z,54.47
2023-03-29T22:37:28.140Z,55.95
2023-03-29T22:39:54.568Z,50.67
2023-03-29T22:42:20.980Z,51.28
2023-03-29T22:44:47.537Z,55.90
2023-03-29T22:47:14.030Z,47.63
2023-03-29T22:49:40.919Z,48.65
2023-03-29T22:52:07.660Z,49.85
2023-03-29T22:54:34.124Z,47.75
2023-03-29T22:57:00.795Z,49.45
2023-03-29T22:59:27.495Z,53.40
2023-03-29T23:01:54.300Z,54.03
2023-03-29T23:04:20.872Z,49.20
2023-03-29T23:06:47.336Z,49.90
2023-03-29T23:09:15.964Z,54.83
2023-03-29T23:11:43.051Z,49.63
2023-03-29T23:14:09.629Z,51.22
2023-03-29T23:16:36.991Z,47.63
2023-03-29T23:19:03.437Z,46.75
2023-03-29T23:21:29.928Z,48.70
2023-03-29T23:23:56.378Z,51.25
2023-03-29T23:26:23.142Z,47.88
2023-03-29T23:28:51.489Z,47.63
2023-03-29T23:31:21.147Z,49.60
2023-03-29T23:33:47.671Z,44.55
2023-03-29T23:36:17.046Z,48.70
2023-03-29T23:38:45.417Z,48.67
2023-03-29T23:41:13.326Z,48.08
2023-03-29T23:43:42.505Z,54.40
2023-03-29T23:46:12.040Z,51.33
2023-03-29T23:48:39.177Z,46.03
2023-03-29T23:51:08.032Z,44.83
2023-03-29T23:53:35.005Z,50.75
2023-03-29T23:56:04.068Z,47.40
2023-03-29T23:58:36.833Z,46.20
